createdAt,value
2022-09-09T00:02:19.953Z,17.75
2022-09-09T00:07:42.150Z,17.73
2022-09-09T00:13:06.441Z,17.73
2022-09-09T00:18:24.129Z,17.73
2022-09-09T00:23:30.051Z,17.68
2022-09-09T00:28:36.973Z,17.68
2022-09-09T00:33:39.016Z,17.69
2022-09-09T00:38:49.150Z,17.67
2022-09-09T00:44:03.861Z,17.60
2022-09-09T00:49:48.202Z,17.66
2022-09-09T00:54:58.187Z,17.48
2022-09-09T01:00:21.482Z,17.50
2022-09-09T01:06:04.688Z,17.42
2022-09-09T01:11:16.760Z,17.30
2022-09-09T01:16:18.792Z,17.18
2022-09-09T01:21:40.540Z,17.25
2022-09-09T01:26:46.606Z,17.20
2022-09-09T01:31:57.110Z,17.18
2022-09-09T01:37:06.520Z,17.07
2022-09-09T01:42:11.699Z,17.06
2022-09-09T01:47:13.208Z,16.95
2022-09-09T01:52:14.668Z,17.02
2022-09-09T01:57:22.105Z,17.06
2022-09-09T02:02:46.638Z,16.98
2022-09-09T02:07:50.398Z,17.04
2022-09-09T02:12:59.827Z,17.02
2022-09-09T02:18:05.392Z,17.12
2022-09-09T02:23:08.836Z,17.08
2022-09-09T02:28:12.851Z,17.00
2022-09-09T02:33:15.645Z,17.02
2022-09-09T02:38:18.423Z,17.00
2022-09-09T02:43:19.913Z,17.05
2022-09-09T02:48:37.158Z,16.99
2022-09-09T02:53:43.061Z,17.00
2022-09-09T02:58:44.699Z,16.98
2022-09-09T03:03:46.291Z,16.97
2022-09-09T03:08:49.798Z,17.02
2022-09-09T03:13:51.351Z,17.06
2022-09-09T03:18:52.749Z,17.06
2022-09-09T03:23:54.240Z,17.10
2022-09-09T03:28:55.607Z,17.11
2022-09-09T03:33:58.348Z,17.05
2022-09-09T03:38:59.959Z,17.09
2022-09-09T03:44:06.743Z,17.10
2022-09-09T03:49:08.965Z,17.10
2022-09-09T03:54:10.534Z,17.08
2022-09-09T03:59:12.086Z,17.09
2022-09-09T04:04:14.048Z,17.10
2022-09-09T04:09:15.881Z,17.10
2022-09-09T04:14:18.015Z,17.10
2022-09-09T04:19:19.461Z,17.10
2022-09-09T04:24:28.775Z,17.11
2022-09-09T04:29:32.745Z,17.09
2022-09-09T04:34:34.189Z,17.05
2022-09-09T04:39:35.600Z,17.08
2022-09-09T04:45:13.176Z,17.05
2022-09-09T04:50:14.708Z,17.07
2022-09-09T04:55:32.902Z,17.02
2022-09-09T05:00:37.382Z,17.05
2022-09-09T05:05:41.472Z,17.04
2022-09-09T05:10:43.711Z,17.06
2022-09-09T05:15:56.228Z,17.01
2022-09-09T05:21:01.299Z,17.06
2022-09-09T05:26:03.503Z,17.09
2022-09-09T05:31:07.743Z,17.12
2022-09-09T05:36:14.300Z,17.12
2022-09-09T05:41:18.558Z,17.10
2022-09-09T05:46:28.891Z,17.07
2022-09-09T05:51:32.532Z,17.10
2022-09-09T05:56:34.228Z,17.19
2022-09-09T06:01:38.136Z,17.20
2022-09-09T06:07:11.073Z,17.41
2022-09-09T06:12:03.359Z,17.62
2022-09-09T06:22:55.251Z,17.84
2022-09-09T06:28:13.118Z,17.72
2022-09-09T06:33:17.603Z,17.62
2022-09-09T06:44:04.702Z,17.72
2022-09-09T06:49:07.137Z,17.70
2022-09-09T06:54:17.496Z,17.92
2022-09-09T06:59:22.279Z,18.05
2022-09-09T07:09:46.797Z,17.94
2022-09-09T07:14:51.125Z,18.29
2022-09-09T07:20:18.510Z,18.49
2022-09-09T07:25:45.175Z,18.89
2022-09-09T07:31:01.417Z,19.01
2022-09-09T07:36:11.815Z,19.76
2022-09-09T07:41:29.108Z,20.30
2022-09-09T07:47:05.715Z,20.80
2022-09-09T08:10:00.429Z,19.93
2022-09-09T08:15:01.891Z,20.35
2022-09-09T08:20:03.468Z,20.08
2022-09-09T08:25:26.319Z,20.27
2022-09-09T08:30:33.651Z,20.04
2022-09-09T08:36:26.874Z,20.52
2022-09-09T08:53:59.973Z,22.45
2022-09-09T08:59:03.324Z,21.66
2022-09-09T09:04:42.543Z,21.48
2022-09-09T09:09:46.923Z,22.22
2022-09-09T09:14:49.829Z,23.22
2022-09-09T09:19:57.629Z,22.64
2022-09-09T09:25:22.100Z,22.75
2022-09-09T09:30:30.602Z,21.20
2022-09-09T09:35:35.088Z,20.91
2022-09-09T09:40:55.872Z,20.72
2022-09-09T09:46:17.631Z,20.50
2022-09-09T09:51:23.872Z,21.28
2022-09-09T09:56:29.573Z,21.08
2022-09-09T10:01:34.104Z,20.96
2022-09-09T10:06:38.043Z,21.62
2022-09-09T10:11:42.623Z,22.18
2022-09-09T10:16:53.293Z,21.36
2022-09-09T10:22:00.639Z,21.53
2022-09-09T10:27:27.348Z,21.51
2022-09-09T10:33:02.837Z,21.38
2022-09-09T10:38:30.897Z,20.97
2022-09-09T10:44:00.314Z,21.52
2022-09-09T10:49:23.461Z,22.49
2022-09-09T10:59:50.455Z,22.44
2022-09-09T11:04:59.888Z,23.69
2022-09-09T11:10:03.121Z,23.40
2022-09-09T11:15:15.326Z,22.50
2022-09-09T11:20:16.943Z,23.87
2022-09-09T11:25:21.108Z,23.93
2022-09-09T11:30:51.207Z,23.14
2022-09-09T11:36:27.099Z,21.97
2022-09-09T11:41:36.152Z,22.06
2022-09-09T11:46:40.018Z,21.83
2022-09-09T11:51:41.463Z,22.77
2022-09-09T11:56:45.571Z,22.01
2022-09-09T12:01:55.782Z,22.25
2022-09-09T12:07:00.589Z,22.47
2022-09-09T12:12:13.872Z,22.27
2022-09-09T12:17:27.078Z,21.60
2022-09-09T12:22:46.457Z,21.08
2022-09-09T12:28:05.242Z,22.64
2022-09-09T12:33:17.268Z,22.59
2022-09-09T12:38:30.806Z,21.76
2022-09-09T12:43:32.741Z,21.95
2022-09-09T12:48:41.077Z,21.81
2022-09-09T12:53:42.848Z,21.45
2022-09-09T12:58:47.903Z,21.00
2022-09-09T13:03:49.386Z,21.56
2022-09-09T13:08:55.621Z,26.74
2022-09-09T13:13:58.767Z,26.33
2022-09-09T13:19:02.649Z,23.96
2022-09-09T13:24:07.597Z,23.29
2022-09-09T13:29:17.748Z,22.72
2022-09-09T13:34:29.905Z,22.25
2022-09-09T13:39:31.487Z,22.38
2022-09-09T13:44:38.511Z,22.85
2022-09-09T13:49:40.023Z,22.66
2022-09-09T13:54:42.929Z,24.24
2022-09-09T14:00:05.549Z,24.82
2022-09-09T14:05:07.533Z,22.87
2022-09-09T14:10:10.101Z,22.40
2022-09-09T14:15:12.754Z,21.98
2022-09-09T14:20:14.419Z,21.16
2022-09-09T14:25:15.873Z,21.07
2022-09-09T14:30:17.583Z,20.11
2022-09-09T14:35:19.014Z,19.45
2022-09-09T14:40:20.403Z,19.10
2022-09-09T14:45:21.816Z,18.68
2022-09-09T14:50:24.175Z,18.40
2022-09-09T14:55:25.652Z,18.85
2022-09-09T15:00:27.369Z,19.16
2022-09-09T15:05:28.772Z,19.52
2022-09-09T15:10:30.288Z,20.12
2022-09-09T15:15:31.654Z,20.78
2022-09-09T15:20:35.970Z,21.11
2022-09-09T15:25:39.665Z,20.59
2022-09-09T15:30:41.146Z,21.13
2022-09-09T15:35:42.787Z,20.79
2022-09-09T15:40:44.803Z,20.11
2022-09-09T15:45:50.400Z,20.24
2022-09-09T15:51:05.172Z,20.71
2022-09-09T15:56:07.649Z,20.40
2022-09-09T16:01:10.723Z,20.49
2022-09-09T16:06:13.519Z,19.96
2022-09-09T16:11:17.646Z,19.68
2022-09-09T16:16:21.505Z,20.19
2022-09-09T16:21:31.359Z,19.40
2022-09-09T16:26:35.203Z,19.08
2022-09-09T16:31:36.967Z,19.30
2022-09-09T16:36:39.828Z,19.29
2022-09-09T16:41:42.751Z,19.28
2022-09-09T16:46:45.414Z,18.97
2022-09-09T16:51:51.137Z,19.38
2022-09-09T16:56:52.669Z,19.51
2022-09-09T17:01:54.160Z,19.54
2022-09-09T17:06:56.042Z,19.56
2022-09-09T17:12:01.058Z,19.43
2022-09-09T17:22:31.693Z,19.13
2022-09-09T17:27:33.135Z,18.98
2022-09-09T17:32:34.674Z,18.97
2022-09-09T17:37:36.109Z,18.88
2022-09-09T17:48:42.162Z,18.44
2022-09-09T17:53:45.570Z,18.34
2022-09-09T17:59:00.691Z,18.24
2022-09-09T18:04:25.556Z,18.07
2022-09-09T18:09:50.792Z,18.08
2022-09-09T18:21:04.518Z,18.03
2022-09-09T18:26:36.679Z,18.09
2022-09-09T18:31:39.565Z,18.04
2022-09-09T18:36:46.518Z,17.89
2022-09-09T18:41:50.734Z,17.92
2022-09-09T18:46:54.470Z,17.80
2022-09-09T18:51:56.411Z,17.72
2022-09-09T18:56:58.061Z,17.67
2022-09-09T19:01:59.538Z,17.64
2022-09-09T19:07:00.945Z,17.43
2022-09-09T19:28:52.007Z,17.21
2022-09-09T19:40:15.530Z,17.04
2022-09-09T19:45:20.193Z,17.07
2022-09-09T19:50:21.806Z,17.07
2022-09-09T19:55:28.953Z,16.97
2022-09-09T20:12:06.520Z,16.69
2022-09-09T20:17:09.621Z,16.81
2022-09-09T20:28:23.564Z,16.64
2022-09-09T20:33:35.790Z,16.65
2022-09-09T20:39:09.622Z,16.71
2022-09-09T20:44:24.460Z,16.72
2022-09-09T20:49:26.326Z,16.75
2022-09-09T20:54:33.204Z,16.83
2022-09-09T20:59:47.412Z,16.83
2022-09-09T21:10:52.319Z,16.73
2022-09-09T21:15:54.060Z,16.66
2022-09-09T21:26:35.001Z,16.40
2022-09-09T21:31:58.786Z,16.38
2022-09-09T21:37:00.231Z,16.36
2022-09-09T22:03:32.988Z,16.56
2022-09-09T22:08:35.557Z,16.52
2022-09-09T22:13:38.096Z,16.49
2022-09-09T22:19:02.783Z,16.50
2022-09-09T22:29:53.465Z,16.44
2022-09-09T23:33:14.890Z,15.95
2022-09-09T23:38:21.033Z,15.93
2022-09-09T23:55:26.593Z,15.87
